Time;durP1;ratioP1;P1;durP2;ratioP2;P2;SDS_P1;SDS_P2;PMS_P1;PMS_P2;Temp;Humidity;BMP_temperature;BMP_pressure;BME280_temperature;BME280_humidity;BME280_pressure;Samples;Min_cycle;Max_cycle;Signal;HPM_P1;HPM_P2
2023/12/24 00:03:50;;;;;;;0.17;0.10;;;;;;;7.77;100.00;97466.81;15295693;19;20025;-53
2023/12/24 00:09:24;;;;;;;1.35;0.50;;;;;;;7.77;100.00;97449.91;15296731;19;20693;-57
2023/12/24 00:14:50;;;;;;;2.78;0.20;;;;;;;7.71;100.00;97471.00;15295231;19;20026;-55
2023/12/24 00:20:15;;;;;;;1.42;0.40;;;;;;;7.63;100.00;97459.47;15299452;19;20665;-55
2023/12/24 00:25:43;;;;;;;0.98;0.30;;;;;;;7.59;100.00;97488.44;15297585;19;20020;-56
2023/12/24 00:31:07;;;;;;;1.20;0.28;;;;;;;7.53;100.00;97470.34;15297311;19;20034;-53
2023/12/24 00:36:32;;;;;;;0.63;0.20;;;;;;;7.47;100.00;97461.13;15296751;19;20027;-54
2023/12/24 00:41:59;;;;;;;1.60;0.20;;;;;;;7.49;100.00;97482.38;15295703;19;20442;-56
2023/12/24 00:47:24;;;;;;;0.55;0.28;;;;;;;7.51;100.00;97477.69;15292649;19;20060;-57
2023/12/24 00:52:48;;;;;;;0.50;0.20;;;;;;;7.52;100.00;97490.97;15037392;19;5001097;-59
2023/12/24 00:58:17;;;;;;;0.50;0.30;;;;;;;7.54;100.00;97496.13;15298496;19;20047;-59
2023/12/24 01:03:42;;;;;;;0.43;0.30;;;;;;;7.54;100.00;97496.97;15289804;19;20054;-60
2023/12/24 01:09:08;;;;;;;0.25;0.25;;;;;;;7.54;100.00;97515.72;15289878;19;20545;-57
2023/12/24 01:14:35;;;;;;;0.75;0.25;;;;;;;7.55;100.00;97508.53;15287850;19;20014;-56
2023/12/24 01:20:00;;;;;;;0.82;0.38;;;;;;;7.56;100.00;97528.97;15292219;19;20093;-58
2023/12/24 01:25:24;;;;;;;0.32;0.30;;;;;;;7.58;100.00;97524.31;15287488;19;20090;-58
2023/12/24 01:30:52;;;;;;;0.82;0.30;;;;;;;7.56;100.00;97518.25;15294007;19;20392;-55
2023/12/24 01:36:17;;;;;;;0.65;0.32;;;;;;;7.55;100.00;97498.63;15293160;19;20467;-56
2023/12/24 01:41:43;;;;;;;0.47;0.30;;;;;;;7.52;100.00;97527.63;15286375;19;20018;-56
2023/12/24 01:47:10;;;;;;;1.13;0.38;;;;;;;7.47;100.00;97509.34;15287168;19;20010;-55
2023/12/24 01:52:35;;;;;;;0.88;0.30;;;;;;;7.40;100.00;97514.53;15290525;19;20406;-56
2023/12/24 01:58:00;;;;;;;1.02;0.40;;;;;;;7.33;100.00;97518.03;15290241;19;20014;-57
2023/12/24 02:03:28;;;;;;;1.98;0.40;;;;;;;7.26;100.00;97523.19;15279965;19;20033;-56
2023/12/24 02:09:00;;;;;;;1.38;0.55;;;;;;;7.20;100.00;97527.34;15288026;19;20021;-55
2023/12/24 02:14:25;;;;;;;1.20;0.32;;;;;;;7.16;100.00;97538.56;15289331;19;20018;-57
2023/12/24 02:19:52;;;;;;;2.67;0.50;;;;;;;7.15;100.00;97539.56;15033679;19;5001315;-55
2023/12/24 02:25:20;;;;;;;1.30;0.38;;;;;;;7.14;100.00;97543.22;15286737;19;20053;-55
2023/12/24 02:30:48;;;;;;;2.33;0.40;;;;;;;7.11;100.00;97544.41;15288187;19;20019;-58
2023/12/24 02:36:14;;;;;;;1.00;0.40;;;;;;;7.05;100.00;97555.78;15287394;19;20029;-56
2023/12/24 02:41:42;;;;;;;0.73;0.40;;;;;;;6.98;100.00;97552.91;15286390;19;20859;-59
2023/12/24 02:47:08;;;;;;;0.82;0.28;;;;;;;6.95;100.00;97553.22;15287187;19;20017;-58
2023/12/24 02:52:33;;;;;;;1.60;0.30;;;;;;;6.94;100.00;97548.84;15280354;19;20026;-59
2023/12/24 02:58:00;;;;;;;1.42;0.40;;;;;;;6.99;100.00;97548.38;15289482;19;20028;-58
2023/12/24 03:03:26;;;;;;;1.15;0.30;;;;;;;7.02;100.00;97548.88;15282695;19;20031;-57
2023/12/24 03:08:58;;;;;;;1.13;0.30;;;;;;;7.05;100.00;97548.56;15283411;19;20014;-56
2023/12/24 03:14:25;;;;;;;0.57;0.20;;;;;;;7.07;100.00;97549.25;15285584;19;20018;-57
2023/12/24 03:19:50;;;;;;;0.43;0.20;;;;;;;7.11;100.00;97547.09;15288191;19;20427;-56
2023/12/24 03:25:15;;;;;;;0.32;0.20;;;;;;;7.11;100.00;97533.69;15277819;19;20006;-56
2023/12/24 03:30:42;;;;;;;0.75;0.20;;;;;;;7.13;100.00;97520.97;15287954;19;20010;-54
2023/12/24 03:36:10;;;;;;;0.30;0.20;;;;;;;7.19;100.00;97532.88;15285537;19;20090;-57
2023/12/24 03:41:34;;;;;;;0.50;0.20;;;;;;;7.20;100.00;97522.00;15283238;19;21805;-58
2023/12/24 03:47:01;;;;;;;1.73;0.32;;;;;;;7.22;100.00;97520.00;15282323;19;20098;-57
2023/12/24 03:52:26;;;;;;;0.10;0.10;;;;;;;7.25;100.00;97513.47;15279419;19;20370;-57
2023/12/24 03:57:51;;;;;;;0.25;0.25;;;;;;;7.25;100.00;97506.28;15279169;19;20017;-54
2023/12/24 04:03:18;;;;;;;3.03;0.32;;;;;;;7.18;100.00;97509.78;15282301;19;20428;-56
2023/12/24 04:08:49;;;;;;;0.55;0.22;;;;;;;7.10;100.00;97491.84;15281049;19;20045;-56
2023/12/24 04:14:14;;;;;;;0.10;0.10;;;;;;;7.01;100.00;97498.16;15281423;19;20046;-54
2023/12/24 04:19:41;;;;;;;1.10;0.10;;;;;;;6.96;100.00;97490.63;15279547;19;20081;-58
2023/12/24 04:25:07;;;;;;;0.20;0.20;;;;;;;6.92;100.00;97490.13;15277384;19;20603;-58
2023/12/24 04:30:31;;;;;;;0.22;0.10;;;;;;;6.90;100.00;97496.59;15289809;19;20022;-58
2023/12/24 04:35:58;;;;;;;0.52;0.10;;;;;;;6.91;100.00;97509.00;15298302;19;20035;-57
2023/12/24 04:41:26;;;;;;;0.55;0.10;;;;;;;6.98;100.00;97515.41;15294650;19;20372;-58
2023/12/24 04:46:55;;;;;;;0.47;0.20;;;;;;;7.06;100.00;97522.59;15295951;19;20010;-55
2023/12/24 04:52:22;;;;;;;0.10;0.10;;;;;;;7.08;100.00;97509.91;15292262;19;20113;-53
2023/12/24 04:57:47;;;;;;;0.43;0.17;;;;;;;7.12;100.00;97511.25;15296000;19;20010;-58
2023/12/24 05:03:12;;;;;;;0.10;0.10;;;;;;;7.16;100.00;97517.13;15284525;19;20018;-55
2023/12/24 05:08:46;;;;;;;0.13;0.10;;;;;;;7.18;100.00;97509.78;15293698;19;20053;-54
2023/12/24 05:14:11;;;;;;;0.30;0.10;;;;;;;7.22;100.00;97514.66;15287810;19;20033;-54
2023/12/24 05:19:35;;;;;;;0.32;0.15;;;;;;;7.28;100.00;97515.00;15293465;19;20018;-55
2023/12/24 05:25:03;;;;;;;0.60;0.10;;;;;;;7.35;100.00;97518.69;15290058;19;20025;-57
2023/12/24 05:30:27;;;;;;;0.10;0.00;;;;;;;7.45;100.00;97523.94;15294551;19;20020;-53
2023/12/24 05:35:52;;;;;;;0.25;0.10;;;;;;;7.56;100.00;97523.63;15289131;19;20479;-55
2023/12/24 05:41:20;;;;;;;0.00;0.00;;;;;;;7.63;100.00;97534.53;15292986;19;20021;-56
2023/12/24 05:46:53;;;;;;;0.15;0.00;;;;;;;7.65;100.00;97532.50;15286125;19;20082;-55
2023/12/24 05:52:17;;;;;;;0.05;0.00;;;;;;;7.69;100.00;97521.31;15292360;19;20015;-56
2023/12/24 05:57:44;;;;;;;0.00;0.00;;;;;;;7.80;100.00;97524.66;15295093;19;20471;-57
2023/12/24 06:03:09;;;;;;;0.10;0.00;;;;;;;7.80;100.00;97514.75;15289057;19;20476;-55
2023/12/24 06:08:40;;;;;;;0.00;0.00;;;;;;;7.84;100.00;97504.53;15286056;19;20078;-57
2023/12/24 06:14:07;;;;;;;0.20;0.00;;;;;;;7.85;100.00;97484.75;15286749;19;20014;-58
2023/12/24 06:19:32;;;;;;;0.00;0.00;;;;;;;7.87;100.00;97482.75;15291872;19;20751;-57
2023/12/24 06:24:57;;;;;;;0.15;0.00;;;;;;;7.90;100.00;97469.03;15287189;19;20498;-57
2023/12/24 06:30:24;;;;;;;0.20;0.00;;;;;;;7.96;100.00;97470.19;15291107;19;20019;-56
2023/12/24 06:35:49;;;;;;;0.85;0.10;;;;;;;8.04;100.00;97458.63;15290437;19;20006;-57
2023/12/24 06:41:13;;;;;;;0.10;0.10;;;;;;;8.01;100.00;97468.69;15282898;19;20504;-57
2023/12/24 06:46:40;;;;;;;0.00;0.00;;;;;;;8.03;100.00;97460.47;15286108;19;20018;-56
2023/12/24 06:52:05;;;;;;;0.10;0.03;;;;;;;8.04;100.00;97456.78;15286841;19;20053;-57
2023/12/24 06:57:30;;;;;;;0.22;0.10;;;;;;;8.10;100.00;97449.91;15287609;19;20082;-55
2023/12/24 07:02:57;;;;;;;0.25;0.10;;;;;;;8.16;100.00;97450.06;15282897;19;20482;-55
2023/12/24 07:08:23;;;;;;;0.00;0.00;;;;;;;8.23;100.00;97425.25;15283805;19;20018;-56
2023/12/24 07:13:47;;;;;;;0.00;0.00;;;;;;;8.20;100.00;97421.03;15279613;19;20014;-56
2023/12/24 07:19:15;;;;;;;0.05;0.00;;;;;;;8.18;100.00;97431.94;15286352;19;20020;-57
2023/12/24 07:24:39;;;;;;;0.30;0.00;;;;;;;8.23;100.00;97434.13;15283753;19;20026;-57
2023/12/24 07:30:05;;;;;;;0.45;0.10;;;;;;;8.23;100.00;97423.38;15286937;19;20570;-50
2023/12/24 07:35:33;;;;;;;0.38;0.10;;;;;;;8.29;100.00;97437.97;15285321;19;20007;-52
2023/12/24 07:40:58;;;;;;;0.03;0.00;;;;;;;8.36;100.00;97428.19;15282289;19;20357;-53
2023/12/24 07:46:23;;;;;;;0.00;0.00;;;;;;;8.38;100.00;97415.47;15275088;19;20006;-53
2023/12/24 07:51:51;;;;;;;0.25;0.10;;;;;;;8.36;100.00;97432.75;15284512;19;20527;-52
2023/12/24 07:57:15;;;;;;;0.00;0.00;;;;;;;8.33;100.00;97415.16;15283128;19;20359;-53
2023/12/24 08:02:36;;;;;;;0.55;0.10;;;;;;;8.30;100.00;97418.16;15288562;19;20024;-51
2023/12/24 08:08:03;;;;;;;0.50;0.20;;;;;;;8.28;100.00;97418.34;15297652;19;20029;-52
2023/12/24 08:13:29;;;;;;;0.13;0.10;;;;;;;8.21;100.00;97433.44;15294232;19;20042;-54
2023/12/24 08:18:55;;;;;;;0.60;0.30;;;;;;;8.14;100.00;97430.59;15295003;19;20471;-52
2023/12/24 08:24:22;;;;;;;0.30;0.17;;;;;;;8.10;100.00;97439.16;15297113;19;20010;-55
2023/12/24 08:29:47;;;;;;;0.88;0.45;;;;;;;8.08;100.00;97446.53;15299914;19;20015;-52
2023/12/24 08:35:12;;;;;;;0.20;0.20;;;;;;;8.02;100.00;97438.19;15297032;19;20021;-51
2023/12/24 08:40:40;;;;;;;1.30;0.80;;;;;;;8.02;100.00;97456.09;15297584;19;20018;-52
2023/12/24 08:46:12;;;;;;;0.40;0.30;;;;;;;8.08;100.00;97465.31;15292137;19;20483;-52
2023/12/24 08:51:37;;;;;;;0.43;0.08;;;;;;;8.09;100.00;97464.31;15289746;19;20400;-51
2023/12/24 08:57:04;;;;;;;0.10;0.08;;;;;;;8.14;100.00;97478.06;15296395;19;20021;-53
2023/12/24 09:02:30;;;;;;;0.00;0.00;;;;;;;8.13;100.00;97466.47;15293896;19;20019;-55
2023/12/24 09:08:01;;;;;;;0.47;0.10;;;;;;;8.13;100.00;97452.25;15291349;19;20456;-52
2023/12/24 09:13:32;;;;;;;0.65;0.10;;;;;;;8.11;100.00;97463.16;15289957;19;20018;-53
2023/12/24 09:18:56;;;;;;;0.25;0.20;;;;;;;8.12;100.00;97466.66;15294885;19;20094;-52
2023/12/24 09:24:21;;;;;;;0.10;0.10;;;;;;;8.12;100.00;97455.94;15292382;19;20017;-51
2023/12/24 09:29:55;;;;;;;0.20;0.20;;;;;;;8.14;100.00;97486.94;15272587;19;20014;-58
2023/12/24 09:35:20;;;;;;;0.10;0.10;;;;;;;8.16;100.00;97473.38;15287130;19;20070;-57
2023/12/24 09:40:45;;;;;;;0.10;0.10;;;;;;;8.22;100.00;97453.91;15290486;19;20021;-53
2023/12/24 09:46:12;;;;;;;0.30;0.10;;;;;;;8.25;100.00;97476.88;15031728;19;5001440;-55
2023/12/24 09:51:38;;;;;;;0.10;0.10;;;;;;;8.36;100.00;97487.25;15282057;19;20021;-55
2023/12/24 09:57:03;;;;;;;0.10;0.10;;;;;;;8.37;100.00;97477.38;15277064;19;20487;-64
2023/12/24 10:02:30;;;;;;;0.00;0.00;;;;;;;8.40;100.00;97472.47;15280456;19;20032;-64
2023/12/24 10:07:55;;;;;;;0.10;0.10;;;;;;;8.47;100.00;97459.22;14769699;19;10000020;-65
2023/12/24 10:13:19;;;;;;;0.08;0.08;;;;;;;8.57;100.00;97457.22;15282109;19;20014;-64
2023/12/24 10:18:53;;;;;;;0.20;0.20;;;;;;;8.66;100.00;97439.22;15280331;19;20018;-65
2023/12/24 10:24:17;;;;;;;0.00;0.00;;;;;;;8.74;100.00;97420.41;15272519;19;20011;-64
2023/12/24 10:29:49;;;;;;;0.03;0.03;;;;;;;8.87;100.00;97413.63;15278065;19;20022;-64
2023/12/24 10:35:23;;;;;;;0.00;0.00;;;;;;;9.00;100.00;97396.94;15276953;19;20086;-64
2023/12/24 10:40:47;;;;;;;0.10;0.00;;;;;;;9.06;100.00;97385.50;15271029;19;20574;-64
2023/12/24 10:46:12;;;;;;;0.10;0.10;;;;;;;9.12;100.00;97363.28;15267050;19;20033;-64
2023/12/24 10:51:40;;;;;;;0.10;0.10;;;;;;;9.17;100.00;97344.78;15275855;19;20246;-64
2023/12/24 10:57:18;;;;;;;0.00;0.00;;;;;;;9.23;100.00;97341.34;15271453;19;20037;-66
2023/12/24 11:02:43;;;;;;;0.20;0.20;;;;;;;9.25;100.00;97336.66;15281115;19;20527;-65
2023/12/24 11:08:30;;;;;;;0.10;0.00;;;;;;;9.30;100.00;97346.03;15277930;19;20006;-65
2023/12/24 11:13:55;;;;;;;0.10;0.00;;;;;;;9.36;100.00;97369.50;15281910;19;20085;-65
2023/12/24 11:19:27;;;;;;;0.25;0.00;;;;;;;9.42;100.00;97339.22;15279198;19;20028;-66
2023/12/24 11:24:54;;;;;;;0.25;0.10;;;;;;;9.47;100.00;97339.50;15276560;19;20025;-65
2023/12/24 11:30:25;;;;;;;0.10;0.00;;;;;;;9.47;100.00;97336.81;15267391;19;20015;-65
2023/12/24 11:36:00;;;;;;;0.00;0.00;;;;;;;9.52;100.00;97320.97;15278464;19;20027;-65
2023/12/24 11:41:29;;;;;;;0.10;0.03;;;;;;;9.56;100.00;97316.91;15294295;19;20847;-65
2023/12/24 11:46:54;;;;;;;0.00;0.00;;;;;;;9.63;100.00;97308.09;15286821;19;20018;-65
2023/12/24 11:52:21;;;;;;;0.08;0.03;;;;;;;9.65;100.00;97319.53;15293308;19;20024;-64
2023/12/24 11:57:51;;;;;;;0.03;0.00;;;;;;;9.65;100.00;97281.88;15287021;19;20037;-64
2023/12/24 12:03:15;;;;;;;0.10;0.10;;;;;;;9.63;100.00;97268.63;15282443;19;20024;-64
2023/12/24 12:08:40;;;;;;;0.00;0.00;;;;;;;9.72;100.00;97261.28;15285575;19;20019;-66
2023/12/24 12:14:07;;;;;;;0.03;0.03;;;;;;;9.73;100.00;97257.56;15283598;19;20018;-64
2023/12/24 12:19:32;;;;;;;0.10;0.00;;;;;;;9.73;100.00;97257.56;15282091;19;21245;-66
2023/12/24 12:24:56;;;;;;;0.08;0.08;;;;;;;9.74;100.00;97264.63;15285201;19;20578;-63
2023/12/24 12:30:30;;;;;;;0.45;0.00;;;;;;;9.79;100.00;97273.00;15281560;19;20035;-66
2023/12/24 12:35:55;;;;;;;0.10;0.10;;;;;;;9.75;100.00;97239.41;15277840;19;20481;-65
2023/12/24 12:41:19;;;;;;;0.00;0.00;;;;;;;9.78;100.00;97265.94;15287568;19;20024;-65
2023/12/24 12:46:47;;;;;;;0.10;0.10;;;;;;;9.80;100.00;97236.16;15282574;19;20102;-65
2023/12/24 12:52:12;;;;;;;0.10;0.10;;;;;;;9.84;100.00;97245.53;15289783;19;20952;-64
2023/12/24 12:57:41;;;;;;;0.00;0.00;;;;;;;9.84;100.00;97206.00;15282140;19;20010;-65
2023/12/24 13:03:19;;;;;;;0.00;0.00;;;;;;;9.85;100.00;97209.56;15285380;19;20485;-64
2023/12/24 13:08:44;;;;;;;0.80;0.10;;;;;;;9.82;100.00;97234.94;15275971;19;20286;-65
2023/12/24 13:14:12;;;;;;;0.10;0.10;;;;;;;9.87;100.00;97219.09;15278102;19;20018;-65
2023/12/24 13:19:41;;;;;;;0.20;0.20;;;;;;;9.85;100.00;97228.38;15281776;19;20041;-65
2023/12/24 13:25:06;;;;;;;0.30;0.20;;;;;;;9.84;100.00;97242.84;15281901;19;20018;-64
2023/12/24 13:30:37;;;;;;;0.08;0.08;;;;;;;9.83;100.00;97230.41;15283348;19;20036;-65
2023/12/24 13:36:05;;;;;;;0.10;0.10;;;;;;;9.83;100.00;97247.38;15277234;19;20022;-65
2023/12/24 13:41:29;;;;;;;0.10;0.00;;;;;;;9.82;100.00;97231.44;15269418;19;20021;-65
2023/12/24 13:46:54;;;;;;;0.00;0.00;;;;;;;9.84;100.00;97229.41;15276467;19;20020;-64
2023/12/24 13:52:21;;;;;;;2.17;0.00;;;;;;;9.83;100.00;97233.09;15274844;19;20058;-64
2023/12/24 13:57:46;;;;;;;0.00;0.00;;;;;;;9.81;100.00;97214.47;15277515;19;20028;-65
2023/12/24 14:03:11;;;;;;;0.40;0.10;;;;;;;9.78;100.00;97219.38;15279465;19;20024;-65
2023/12/24 14:08:39;;;;;;;0.20;0.20;;;;;;;9.75;100.00;97193.69;15278330;19;20042;-63
2023/12/24 14:14:03;;;;;;;0.10;0.10;;;;;;;9.76;100.00;97189.97;15275610;19;20010;-65
2023/12/24 14:19:29;;;;;;;0.05;0.05;;;;;;;9.74;100.00;97189.31;15277808;19;20017;-64
2023/12/24 14:24:57;;;;;;;0.00;0.00;;;;;;;9.76;100.00;97170.34;15278986;19;20010;-65
2023/12/24 14:30:27;;;;;;;1.40;0.10;;;;;;;9.74;100.00;97151.69;15278751;19;20014;-64
2023/12/24 14:35:52;;;;;;;0.22;0.10;;;;;;;9.72;100.00;97156.41;15278850;19;20501;-65
2023/12/24 14:41:19;;;;;;;0.10;0.10;;;;;;;9.73;100.00;97152.69;15278961;19;20014;-64
2023/12/24 14:46:45;;;;;;;0.03;0.03;;;;;;;9.71;100.00;97152.03;15269948;19;20029;-65
2023/12/24 14:52:12;;;;;;;1.52;0.10;;;;;;;9.69;100.00;97136.09;15279115;19;20039;-65
2023/12/24 14:57:39;;;;;;;0.50;0.20;;;;;;;9.69;100.00;97127.22;15277266;19;21353;-63
2023/12/24 15:03:03;;;;;;;0.13;0.10;;;;;;;9.67;100.00;97148.91;15280034;19;20014;-64
2023/12/24 15:08:28;;;;;;;0.28;0.20;;;;;;;9.64;100.00;97132.31;15271345;19;20025;-64
2023/12/24 15:13:56;;;;;;;0.10;0.10;;;;;;;9.63;100.00;97138.72;15278986;19;20003;-64
2023/12/24 15:19:21;;;;;;;0.10;0.10;;;;;;;9.61;100.00;97141.59;15274264;19;20007;-63
2023/12/24 15:24:45;;;;;;;0.10;0.10;;;;;;;9.62;100.00;97153.16;15278361;19;20374;-64
2023/12/24 15:30:19;;;;;;;0.10;0.10;;;;;;;9.67;100.00;97145.38;15274116;19;20022;-64
2023/12/24 15:35:44;;;;;;;0.10;0.10;;;;;;;9.70;100.00;97140.47;15275926;19;20026;-64
2023/12/24 15:41:09;;;;;;;0.00;0.00;;;;;;;9.75;100.00;97131.84;15279078;19;20011;-64
2023/12/24 15:46:44;;;;;;;0.10;0.10;;;;;;;9.81;100.00;97135.63;15261931;19;20009;-63
2023/12/24 15:52:12;;;;;;;0.20;0.20;;;;;;;9.83;100.00;97141.66;15269601;19;20017;-65
2023/12/24 15:57:39;;;;;;;0.20;0.08;;;;;;;9.81;100.00;97149.91;15269111;19;20019;-63
2023/12/24 16:03:07;;;;;;;0.77;0.10;;;;;;;9.84;100.00;97168.34;15276584;19;20078;-63
2023/12/24 16:08:32;;;;;;;0.30;0.25;;;;;;;9.84;100.00;97162.97;15268209;19;20003;-62
2023/12/24 16:13:56;;;;;;;0.10;0.10;;;;;;;9.85;100.00;97155.75;15273806;19;20003;-64
2023/12/24 16:19:24;;;;;;;0.20;0.17;;;;;;;9.82;100.00;97143.50;15267342;19;20010;-63
2023/12/24 16:24:51;;;;;;;0.10;0.10;;;;;;;9.81;100.00;97114.97;15279872;19;20014;-64
2023/12/24 16:30:15;;;;;;;0.17;0.17;;;;;;;9.79;100.00;97122.38;15282695;19;20029;-64
2023/12/24 16:35:43;;;;;;;1.45;0.20;;;;;;;9.77;100.00;97112.81;15288670;19;20025;-62
2023/12/24 16:41:08;;;;;;;0.10;0.10;;;;;;;9.77;100.00;97108.28;15280789;19;20078;-64
2023/12/24 16:46:32;;;;;;;0.60;0.13;;;;;;;9.75;100.00;97104.13;15285043;19;20380;-64
2023/12/24 16:52:00;;;;;;;0.20;0.20;;;;;;;9.75;100.00;97129.13;15280409;19;20014;-65
2023/12/24 16:57:24;;;;;;;0.20;0.20;;;;;;;9.75;100.00;97131.00;15278899;19;20371;-64
2023/12/24 17:02:54;;;;;;;0.10;0.10;;;;;;;9.74;100.00;97122.09;15287339;19;20011;-64
2023/12/24 17:08:21;;;;;;;0.10;0.10;;;;;;;9.76;100.00;97127.31;15272649;19;20033;-65
2023/12/24 17:13:49;;;;;;;0.10;0.10;;;;;;;9.82;100.00;97135.41;15285486;19;20019;-61
2023/12/24 17:19:13;;;;;;;0.10;0.10;;;;;;;9.91;100.00;97143.41;15283107;19;20041;-64
2023/12/24 17:24:42;;;;;;;0.00;0.00;;;;;;;9.93;100.00;97128.72;15272284;19;20665;-61
2023/12/24 17:30:08;;;;;;;0.10;0.03;;;;;;;9.93;100.00;97133.28;15282548;19;20022;-64
2023/12/24 17:35:33;;;;;;;0.05;0.05;;;;;;;9.91;100.00;97140.72;15278772;19;20017;-63
2023/12/24 17:41:00;;;;;;;0.10;0.10;;;;;;;9.95;100.00;97142.00;15280615;19;20014;-63
2023/12/24 17:46:25;;;;;;;0.10;0.10;;;;;;;9.95;100.00;97136.59;15282745;19;20046;-62
2023/12/24 17:51:56;;;;;;;0.20;0.20;;;;;;;9.94;100.00;97151.06;15284360;19;20014;-64
2023/12/24 17:57:23;;;;;;;0.30;0.20;;;;;;;9.86;100.00;97158.25;15276230;19;20031;-63
2023/12/24 18:02:48;;;;;;;0.20;0.20;;;;;;;9.80;100.00;97166.22;15284088;19;20255;-64
2023/12/24 18:08:12;;;;;;;0.20;0.20;;;;;;;9.74;100.00;97157.06;15279758;19;20021;-63
2023/12/24 18:13:40;;;;;;;1.48;0.30;;;;;;;9.69;100.00;97163.00;15283508;19;20025;-63
2023/12/24 18:19:04;;;;;;;0.20;0.20;;;;;;;9.66;100.00;97171.44;15280026;19;20492;-62
2023/12/24 18:24:29;;;;;;;0.10;0.10;;;;;;;9.56;100.00;97195.06;15280281;19;20014;-66
2023/12/24 18:29:56;;;;;;;0.20;0.10;;;;;;;9.44;100.00;97200.09;15273243;19;20015;-64
2023/12/24 18:35:21;;;;;;;0.20;0.20;;;;;;;9.40;100.00;97204.16;15280288;19;20011;-66
2023/12/24 18:40:45;;;;;;;0.28;0.10;;;;;;;9.37;100.00;97231.41;15277192;19;20364;-68
2023/12/24 18:46:15;;;;;;;0.10;0.10;;;;;;;9.36;100.00;97233.25;15273143;19;20013;-67
2023/12/24 18:51:47;;;;;;;0.13;0.10;;;;;;;9.32;100.00;97236.50;15272789;19;20463;-64
2023/12/24 18:57:11;;;;;;;0.03;0.03;;;;;;;9.30;100.00;97251.97;15274728;19;20357;-64
2023/12/24 19:02:39;;;;;;;0.40;0.20;;;;;;;9.29;100.00;97252.97;15270156;19;20025;-63
2023/12/24 19:08:04;;;;;;;0.65;0.20;;;;;;;9.33;100.00;97267.72;15279436;19;20118;-65
2023/12/24 19:13:29;;;;;;;0.30;0.10;;;;;;;9.34;100.00;97274.78;15280595;19;20017;-64
2023/12/24 19:18:56;;;;;;;0.63;0.20;;;;;;;9.36;100.00;97278.94;15276200;19;20013;-65
2023/12/24 19:24:28;;;;;;;0.00;0.00;;;;;;;9.38;100.00;97241.13;15277034;19;20020;-64
2023/12/24 19:29:52;;;;;;;0.33;0.23;;;;;;;9.41;100.00;97252.34;15272846;19;20010;-64
2023/12/24 19:35:20;;;;;;;0.15;0.10;;;;;;;9.43;100.00;97243.25;15270739;19;20376;-65
2023/12/24 19:40:44;;;;;;;0.10;0.10;;;;;;;9.49;100.00;97256.81;15275091;19;20016;-64
2023/12/24 19:46:12;;;;;;;0.55;0.20;;;;;;;9.56;100.00;97225.50;15275499;19;20035;-65
2023/12/24 19:51:46;;;;;;;0.52;0.10;;;;;;;9.60;100.00;97215.22;15272874;19;20034;-65
2023/12/24 19:57:10;;;;;;;0.20;0.20;;;;;;;9.63;100.00;97214.84;15278404;19;20021;-65
2023/12/24 20:02:35;;;;;;;0.10;0.10;;;;;;;9.66;100.00;97211.75;15293278;19;20037;-65
2023/12/24 20:08:02;;;;;;;0.20;0.13;;;;;;;9.71;100.00;97219.28;15285254;19;20021;-64
2023/12/24 20:13:27;;;;;;;0.25;0.20;;;;;;;9.78;100.00;97239.03;15292525;19;20014;-64
2023/12/24 20:18:51;;;;;;;0.22;0.22;;;;;;;9.88;100.00;97233.38;15287150;19;20021;-64
2023/12/24 20:24:37;;;;;;;0.10;0.10;;;;;;;9.95;100.00;97237.00;15305431;19;20014;-65
2023/12/24 20:30:09;;;;;;;0.37;0.10;;;;;;;10.03;100.00;97215.38;15296792;19;20010;-63
2023/12/24 20:35:35;;;;;;;0.30;0.20;;;;;;;10.06;100.00;97219.53;15299178;19;20016;-64
2023/12/24 20:41:03;;;;;;;0.47;0.20;;;;;;;10.08;100.00;97222.88;15288777;19;20010;-64
2023/12/24 20:46:28;;;;;;;0.20;0.20;;;;;;;10.22;100.00;97213.13;15295310;19;20025;-64
2023/12/24 20:52:01;;;;;;;0.10;0.10;;;;;;;10.33;100.00;97201.88;15269837;19;20031;-63
2023/12/24 20:57:29;;;;;;;1.20;0.10;;;;;;;10.45;100.00;97191.44;15294635;19;20014;-63
2023/12/24 21:02:54;;;;;;;0.10;0.10;;;;;;;10.47;100.00;97189.41;15297874;19;20066;-63
2023/12/24 21:08:20;;;;;;;0.30;0.10;;;;;;;10.53;100.00;97173.50;15293876;19;20014;-63
2023/12/24 21:13:48;;;;;;;0.47;0.13;;;;;;;10.58;100.00;97157.59;15290503;19;20025;-63
2023/12/24 21:19:14;;;;;;;0.47;0.15;;;;;;;10.65;100.00;97153.09;15294163;19;20029;-63
2023/12/24 21:24:40;;;;;;;0.20;0.10;;;;;;;10.61;100.00;97170.69;15293843;19;20014;-64
2023/12/24 21:30:10;;;;;;;0.50;0.10;;;;;;;10.59;100.00;97140.41;15290406;19;20042;-62
2023/12/24 21:35:34;;;;;;;0.10;0.10;;;;;;;10.65;100.00;97158.47;15288251;19;20086;-61
2023/12/24 21:40:59;;;;;;;0.57;0.08;;;;;;;10.71;100.00;97146.94;15287711;19;20021;-61
2023/12/24 21:46:24;;;;;;;0.38;0.00;;;;;;;10.72;100.00;97131.63;15290029;19;20101;31
2023/12/24 21:51:59;;;;;;;0.00;0.00;;;;;;;10.76;100.00;97133.72;15273942;19;20018;-69
2023/12/24 21:57:26;;;;;;;0.00;0.00;;;;;;;10.77;100.00;97130.00;15289790;19;20638;-69
2023/12/24 22:02:50;;;;;;;0.05;0.05;;;;;;;10.81;100.00;97129.63;15292836;19;20011;-69
2023/12/24 22:08:17;;;;;;;0.00;0.00;;;;;;;10.81;100.00;97141.25;15288009;19;20011;-69
2023/12/24 22:13:42;;;;;;;0.10;0.10;;;;;;;10.79;100.00;97146.81;15292164;19;20020;-68
2023/12/24 22:19:06;;;;;;;1.65;0.00;;;;;;;10.89;100.00;97164.50;15287415;19;20013;-69
2023/12/24 22:24:34;;;;;;;0.52;0.10;;;;;;;10.89;100.00;97170.72;15287346;19;20011;-69
2023/12/24 22:29:58;;;;;;;0.10;0.10;;;;;;;10.91;100.00;97157.91;15286751;19;20010;-69
2023/12/24 22:35:23;;;;;;;0.32;0.10;;;;;;;10.92;100.00;97167.66;15288308;19;20020;-68
2023/12/24 22:40:51;;;;;;;0.20;0.10;;;;;;;10.89;100.00;97154.56;15285946;19;20046;-68
2023/12/24 22:46:16;;;;;;;0.20;0.10;;;;;;;10.91;100.00;97178.63;15280700;19;20024;-66
2023/12/24 22:51:47;;;;;;;0.90;0.20;;;;;;;10.93;100.00;97190.03;15276909;19;20018;-64
2023/12/24 22:57:14;;;;;;;0.30;0.13;;;;;;;10.92;100.00;97215.31;15279597;19;20025;-65
2023/12/24 23:02:40;;;;;;;0.10;0.10;;;;;;;11.00;100.00;97217.03;15288642;19;20086;-64
2023/12/24 23:08:07;;;;;;;0.30;0.10;;;;;;;11.02;100.00;97244.63;15287033;19;20090;-64
2023/12/24 23:13:34;;;;;;;0.15;0.10;;;;;;;11.00;100.00;97211.66;15284667;19;20014;-64
2023/12/24 23:18:59;;;;;;;0.22;0.20;;;;;;;11.07;100.00;97189.13;15281697;19;20016;-64
2023/12/24 23:24:23;;;;;;;0.10;0.10;;;;;;;11.09;100.00;97219.41;15288518;19;20070;-63
2023/12/24 23:29:50;;;;;;;0.50;0.03;;;;;;;11.09;100.00;97208.63;15287267;19;20535;-63
2023/12/24 23:35:16;;;;;;;0.10;0.10;;;;;;;11.16;100.00;97248.28;15310450;19;20455;-62
2023/12/24 23:40:40;;;;;;;0.30;0.10;;;;;;;11.19;100.00;97226.34;15313644;19;20014;-63
2023/12/24 23:46:08;;;;;;;0.20;0.10;;;;;;;11.17;100.00;97231.06;15314159;19;20010;-64
2023/12/24 23:51:40;;;;;;;0.10;0.10;;;;;;;11.12;100.00;97249.69;15308974;19;20025;-63
2023/12/24 23:57:05;;;;;;;0.20;0.10;;;;;;;11.02;100.00;97223.06;15315091;19;20082;-63
